Time;durP1;ratioP1;P1;durP2;ratioP2;P2;SDS_P1;SDS_P2;PMS_P1;PMS_P2;Temp;Humidity;BMP_temperature;BMP_pressure;BME280_temperature;BME280_humidity;BME280_pressure;Samples;Min_cycle;Max_cycle;Signal;HPM_P1;HPM_P2
2021/04/10 00:01:20;;;;;;;1.2;1.1;;;;;;;4.95;67.03516;936.7128;;;;
2021/04/10 00:03:46;;;;;;;1.8;1;;;;;;;4.99;67.1875;936.7449;;;;
2021/04/10 00:06:11;;;;;;;1.9;1.2;;;;;;;4.98;67.1748;936.6428;;;;
2021/04/10 00:08:36;;;;;;;1.3;0.9;;;;;;;4.87;68.09277;936.6808;;;;
2021/04/10 00:11:01;;;;;;;1.9;1.3;;;;;;;4.86;67.79883;936.6521;;;;
2021/04/10 00:13:30;;;;;;;1.3;1;;;;;;;4.86;67.94336;936.6244;;;;
2021/04/10 00:16:11;;;;;;;1.7;1.3;;;;;;;4.84;67.77148;936.5883;;;;
2021/04/10 00:18:38;;;;;;;4.1;1.3;;;;;;;4.86;67.40234;936.6166;;;;
2021/04/10 00:21:02;;;;;;;1.2;1.1;;;;;;;4.85;67.14355;936.6108;;;;
2021/04/10 00:23:31;;;;;;;1.8;1.3;;;;;;;4.94;67.04395;936.6669;;;;
2021/04/10 00:25:58;;;;;;;1.6;1.2;;;;;;;4.93;67.13281;936.6761;;;;
2021/04/10 00:28:23;;;;;;;2.4;1.1;;;;;;;4.74;67.75684;936.6192;;;;
2021/04/10 00:30:48;;;;;;;1.6;1.1;;;;;;;4.71;67.83008;936.6153;;;;
2021/04/10 00:33:14;;;;;;;3.7;1.5;;;;;;;4.73;67.92383;936.5756;;;;
2021/04/10 00:35:40;;;;;;;1.1;0.9;;;;;;;4.68;67.9707;936.507;;;;
2021/04/10 00:38:05;;;;;;;2;0.9;;;;;;;4.67;68.19629;936.5644;;;;
2021/04/10 00:40:30;;;;;;;1.4;1.1;;;;;;;4.73;68.1377;936.6205;;;;
2021/04/10 00:42:57;;;;;;;1.8;1.2;;;;;;;4.81;67.79004;936.6097;;;;
2021/04/10 00:45:21;;;;;;;1;0.9;;;;;;;4.8;67.7207;936.568;;;;
2021/04/10 00:47:49;;;;;;;3.4;1.2;;;;;;;4.71;67.88672;936.6547;;;;
2021/04/10 00:50:14;;;;;;;1.7;1;;;;;;;4.62;68.52539;936.6812;;;;
2021/04/10 00:52:40;;;;;;;6.3;1.3;;;;;;;4.68;68.07422;936.5869;;;;
2021/04/10 00:55:05;;;;;;;1.1;0.9;;;;;;;4.57;68.21387;936.5676;;;;
2021/04/10 00:57:32;;;;;;;5.3;1.1;;;;;;;4.53;68.5459;936.6145;;;;
2021/04/10 00:59:57;;;;;;;1.9;1;;;;;;;4.56;68.43848;936.5854;;;;
2021/04/10 01:02:23;;;;;;;1.2;0.8;;;;;;;4.67;68.19629;936.6195;;;;
2021/04/10 01:04:48;;;;;;;0.7;0.7;;;;;;;4.63;68.12109;936.5988;;;;
2021/04/10 01:07:15;;;;;;;1.4;1.1;;;;;;;4.6;68.48926;936.6283;;;;
2021/04/10 01:09:40;;;;;;;0.9;0.9;;;;;;;4.5;68.84473;936.5781;;;;
2021/04/10 01:12:05;;;;;;;1;0.7;;;;;;;4.54;68.41211;936.525;;;;
2021/04/10 01:14:33;;;;;;;2;1.1;;;;;;;4.46;68.74707;936.5847;;;;
2021/04/10 01:17:04;;;;;;;1.9;1.3;;;;;;;4.45;68.39648;936.5112;;;;
2021/04/10 01:19:37;;;;;;;1;0.9;;;;;;;4.48;68.37988;936.5602;;;;
2021/04/10 01:22:03;;;;;;;1.1;0.8;;;;;;;4.49;67.94238;936.652;;;;
2021/04/10 01:24:33;;;;;;;1.1;0.9;;;;;;;4.47;68.27734;936.619;;;;
2021/04/10 01:26:58;;;;;;;1.7;1.1;;;;;;;4.41;68.87598;936.645;;;;
2021/04/10 01:29:25;;;;;;;1.7;1;;;;;;;4.35;69.37109;936.6247;;;;
2021/04/10 01:31:50;;;;;;;0.8;0.8;;;;;;;4.34;69.31348;936.6116;;;;
2021/04/10 01:34:20;;;;;;;1.2;1;;;;;;;4.25;69.74902;936.5988;;;;
2021/04/10 01:36:46;;;;;;;1.6;1.4;;;;;;;4.2;69.91992;936.63;;;;
2021/04/10 01:39:11;;;;;;;2.7;1.4;;;;;;;4.17;69.91504;936.6521;;;;
2021/04/10 01:41:40;;;;;;;2.9;1.4;;;;;;;4.29;69.38477;936.5897;;;;
2021/04/10 01:44:05;;;;;;;1.4;1.2;;;;;;;4.22;69.81152;936.6918;;;;
2021/04/10 01:46:34;;;;;;;1.8;1.3;;;;;;;4.21;69.74316;936.7001;;;;
2021/04/10 01:49:04;;;;;;;1.9;1.3;;;;;;;4.2;70.02246;936.683;;;;
2021/04/10 01:51:29;;;;;;;0.9;0.9;;;;;;;4.27;69.74219;936.6855;;;;
2021/04/10 01:53:58;;;;;;;2.2;1.2;;;;;;;4.29;69.77832;936.652;;;;
2021/04/10 01:56:23;;;;;;;8.1;1.8;;;;;;;4.35;69.80859;936.6434;;;;
2021/04/10 01:58:50;;;;;;;3.2;1.6;;;;;;;4.27;69.88672;936.6545;;;;
2021/04/10 02:01:15;;;;;;;1.9;0.9;;;;;;;4.13;70.13477;936.6035;;;;
2021/04/10 02:03:44;;;;;;;3.2;1.5;;;;;;;4.13;71.29297;936.6225;;;;
2021/04/10 02:06:09;;;;;;;2.9;1.2;;;;;;;4.15;70.7002;936.5939;;;;
2021/04/10 02:08:35;;;;;;;1;0.9;;;;;;;4.26;70.34668;936.5833;;;;
2021/04/10 02:11:00;;;;;;;1;0.9;;;;;;;4.2;70.74121;936.5653;;;;
2021/04/10 02:13:27;;;;;;;1.9;1;;;;;;;4.21;70.85645;936.5094;;;;
2021/04/10 02:15:59;;;;;;;6.1;0.9;;;;;;;4.28;70.87793;936.5406;;;;
2021/04/10 02:18:24;;;;;;;3.9;1.1;;;;;;;4.37;70.65723;936.5094;;;;
2021/04/10 02:20:50;;;;;;;1.5;1.1;;;;;;;4.41;70.47363;936.6031;;;;
2021/04/10 02:23:15;;;;;;;2.4;1.4;;;;;;;4.26;71.31445;936.6147;;;;
2021/04/10 02:25:40;;;;;;;2.8;1.5;;;;;;;4.24;71.2998;936.5781;;;;
2021/04/10 02:28:07;;;;;;;2.2;1.3;;;;;;;4.34;71.2041;936.5959;;;;
2021/04/10 02:30:32;;;;;;;2.1;1.2;;;;;;;4.4;71.20215;936.5958;;;;
2021/04/10 02:32:58;;;;;;;2.4;1.1;;;;;;;4.58;70.68066;936.5528;;;;
2021/04/10 02:35:24;;;;;;;1.7;1.3;;;;;;;4.67;69.49121;936.5251;;;;
2021/04/10 02:37:52;;;;;;;0.8;0.7;;;;;;;4.6;69.58105;936.4628;;;;
2021/04/10 02:40:17;;;;;;;2.3;1.3;;;;;;;4.66;68.75684;936.4978;;;;
2021/04/10 02:42:42;;;;;;;1.6;1;;;;;;;4.84;65.85742;936.5089;;;;
2021/04/10 02:45:08;;;;;;;1.2;1;;;;;;;4.96;67.49707;936.4125;;;;
2021/04/10 02:47:34;;;;;;;1.1;0.9;;;;;;;4.88;68.15039;936.5359;;;;
2021/04/10 02:49:59;;;;;;;3.6;1.3;;;;;;;4.91;68.04199;936.4672;;;;
2021/04/10 02:52:26;;;;;;;1.9;1.3;;;;;;;4.72;68.34961;936.4412;;;;
2021/04/10 02:54:51;;;;;;;2.3;0.9;;;;;;;4.69;68.76367;936.4767;;;;
2021/04/10 02:57:16;;;;;;;2.8;1.5;;;;;;;4.54;69.28906;936.4445;;;;
2021/04/10 02:59:42;;;;;;;3;1.2;;;;;;;4.48;69.86621;936.5075;;;;
2021/04/10 03:02:07;;;;;;;1.5;1;;;;;;;4.46;70.12207;936.4241;;;;
2021/04/10 03:04:34;;;;;;;1.8;1.1;;;;;;;4.49;70.23926;936.5574;;;;
2021/04/10 03:06:59;;;;;;;3.2;1.3;;;;;;;4.58;69.99316;936.5922;;;;
2021/04/10 03:09:24;;;;;;;1.9;1.4;;;;;;;4.65;69.73535;936.5945;;;;
2021/04/10 03:11:50;;;;;;;1.4;1;;;;;;;4.63;69.31543;936.6414;;;;
2021/04/10 03:14:17;;;;;;;2.2;1.2;;;;;;;4.56;70.37305;936.6019;;;;
2021/04/10 03:16:46;;;;;;;3.3;1.6;;;;;;;4.54;70.4502;936.5739;;;;
2021/04/10 03:19:14;;;;;;;2.7;1.3;;;;;;;4.58;70.56738;936.5867;;;;
2021/04/10 03:21:39;;;;;;;3;1.4;;;;;;;4.53;70.78418;936.6325;;;;
2021/04/10 03:24:06;;;;;;;33.9;17.1;;;;;;;4.59;70.73926;936.6209;;;;
2021/04/10 03:26:32;;;;;;;3.2;1.4;;;;;;;4.63;70.58789;936.7059;;;;
2021/04/10 03:28:58;;;;;;;4.2;2.5;;;;;;;4.7;70.18262;936.7214;;;;
2021/04/10 03:31:23;;;;;;;3.5;1.8;;;;;;;4.83;70.09082;936.7238;;;;
2021/04/10 03:33:50;;;;;;;4.9;1.8;;;;;;;4.87;69.30957;936.7486;;;;
2021/04/10 03:36:15;;;;;;;2.8;1.6;;;;;;;4.88;69.39063;936.7361;;;;
2021/04/10 03:38:41;;;;;;;2.9;2;;;;;;;4.96;69.34668;936.7322;;;;
2021/04/10 03:41:05;;;;;;;1.8;1.2;;;;;;;5.06;69.4873;936.6626;;;;
2021/04/10 03:43:32;;;;;;;7;2.3;;;;;;;5.06;69.41992;936.6887;;;;
2021/04/10 03:45:57;;;;;;;2.3;1.5;;;;;;;5.14;68.82227;936.7097;;;;
2021/04/10 03:48:24;;;;;;;2.2;1.5;;;;;;;5.13;68.98047;936.6282;;;;
2021/04/10 03:50:49;;;;;;;1.4;1.3;;;;;;;5.06;68.93359;936.7012;;;;
2021/04/10 03:53:16;;;;;;;4.6;1.8;;;;;;;5.1;69.06641;936.734;;;;
2021/04/10 03:55:41;;;;;;;3.4;2;;;;;;;5.05;69.125;936.7072;;;;
2021/04/10 03:58:06;;;;;;;7.5;3;;;;;;;5.08;69.19727;936.7374;;;;
2021/04/10 04:02:29;;;;;;;4.6;1.9;;;;;;;5.15;69.12793;936.7217;;;;
2021/04/10 04:04:54;;;;;;;3.9;2.1;;;;;;;5.12;69.29297;936.7234;;;;
2021/04/10 04:07:20;;;;;;;6;2.6;;;;;;;5.23;69.22168;936.7258;;;;
2021/04/10 04:09:45;;;;;;;3.1;1.7;;;;;;;5.24;69.16699;936.7452;;;;
2021/04/10 04:12:13;;;;;;;2.7;1.5;;;;;;;5.24;69.3457;936.6951;;;;
2021/04/10 04:14:38;;;;;;;4.6;1.6;;;;;;;5.2;69.27246;936.7878;;;;
2021/04/10 04:17:05;;;;;;;3.4;1.3;;;;;;;5.03;69.97852;936.8077;;;;
2021/04/10 04:19:28;;;;;;;2.4;1.4;;;;;;;4.98;70.17285;936.8337;;;;
2021/04/10 04:21:54;;;;;;;2.8;1.7;;;;;;;4.92;70.07324;936.7626;;;;
2021/04/10 04:24:19;;;;;;;6.6;2.7;;;;;;;4.97;70.04883;936.731;;;;
2021/04/10 04:26:44;;;;;;;5.3;2.6;;;;;;;4.9;70.64551;936.7668;;;;
2021/04/10 04:29:09;;;;;;;4.1;2.4;;;;;;;4.83;70.80273;936.7673;;;;
2021/04/10 04:31:36;;;;;;;9.4;4;;;;;;;4.95;70.29199;936.8535;;;;
2021/04/10 04:34:01;;;;;;;9.4;3.7;;;;;;;4.95;69.48047;936.7697;;;;
2021/04/10 04:36:26;;;;;;;5.9;3.2;;;;;;;5.02;69.35742;936.9094;;;;
2021/04/10 04:38:52;;;;;;;4.4;2.8;;;;;;;5.08;69.37695;936.8186;;;;
2021/04/10 04:41:20;;;;;;;6.1;2.5;;;;;;;5.11;69.38184;936.9283;;;;
2021/04/10 04:43:43;;;;;;;3.1;1.9;;;;;;;5.14;69.18457;936.9426;;;;
2021/04/10 04:46:09;;;;;;;3.2;2.1;;;;;;;5.13;68.96875;936.9572;;;;
2021/04/10 04:48:34;;;;;;;3.2;1.7;;;;;;;5.06;68.97949;936.9081;;;;
2021/04/10 04:51:01;;;;;;;4;1.9;;;;;;;5.07;69.10547;936.9659;;;;
2021/04/10 04:53:26;;;;;;;3.5;1.9;;;;;;;5.1;69.01953;936.999;;;;
2021/04/10 04:55:51;;;;;;;2.7;1.4;;;;;;;5;69.17383;936.9669;;;;
2021/04/10 04:58:16;;;;;;;3.1;1.6;;;;;;;4.88;69.72852;936.9004;;;;
2021/04/10 05:00:42;;;;;;;5.7;1.5;;;;;;;4.82;70.36133;936.9697;;;;
2021/04/10 05:03:08;;;;;;;3.1;1.5;;;;;;;4.72;70.625;936.9672;;;;
2021/04/10 05:05:34;;;;;;;5.4;2.9;;;;;;;4.66;71.25684;936.9504;;;;
2021/04/10 05:07:59;;;;;;;6.1;3.5;;;;;;;4.66;71.68457;936.9891;;;;
2021/04/10 05:10:26;;;;;;;13.2;5.2;;;;;;;4.83;71.29688;936.9556;;;;
2021/04/10 05:12:51;;;;;;;11.1;5;;;;;;;4.92;70.72754;937.0183;;;;
2021/04/10 05:15:24;;;;;;;2.7;1.6;;;;;;;5.02;69.95508;937.0136;;;;
2021/04/10 05:17:49;;;;;;;4.5;2.7;;;;;;;5.26;69.29395;937.0131;;;;
2021/04/10 05:20:16;;;;;;;9.9;3.5;;;;;;;5.35;68.91504;937.0986;;;;
2021/04/10 05:22:41;;;;;;;8.6;3.9;;;;;;;5.52;68.84961;937.0156;;;;
2021/04/10 05:25:09;;;;;;;7.6;3.5;;;;;;;5.75;68.09863;937.022;;;;
2021/04/10 05:27:34;;;;;;;6.1;3;;;;;;;5.85;67.57129;937.0634;;;;
2021/04/10 05:30:00;;;;;;;5.8;2.7;;;;;;;5.87;66.83984;936.9554;;;;
2021/04/10 05:32:25;;;;;;;3.7;2.4;;;;;;;5.87;66.86328;936.9745;;;;
2021/04/10 05:34:51;;;;;;;3.4;2;;;;;;;5.75;67.26172;937.01;;;;
2021/04/10 05:37:17;;;;;;;3;2.1;;;;;;;6.01;66.87305;936.9874;;;;
2021/04/10 05:39:43;;;;;;;2;1.5;;;;;;;6.19;66.30078;936.9828;;;;
2021/04/10 05:42:08;;;;;;;5.3;1.3;;;;;;;6.22;64.78223;936.9294;;;;
2021/04/10 05:44:34;;;;;;;4.1;1.7;;;;;;;6.64;64.28906;936.9361;;;;
2021/04/10 05:46:59;;;;;;;1.9;1.4;;;;;;;7.81;61.43652;936.8655;;;;
2021/04/10 05:49:26;;;;;;;3.3;2.1;;;;;;;8.48;57.81738;936.8738;;;;
2021/04/10 05:51:51;;;;;;;5.6;1.5;;;;;;;9.16;56.88379;936.9633;;;;
2021/04/10 05:54:18;;;;;;;1.4;1;;;;;;;9.8;51.39355;936.8577;;;;
2021/04/10 05:56:45;;;;;;;2.3;1.4;;;;;;;9.93;52.6748;936.8585;;;;
2021/04/10 05:59:10;;;;;;;2.7;1.8;;;;;;;10.2;51.62402;936.7696;;;;
2021/04/10 06:01:35;;;;;;;2.9;1.8;;;;;;;10.62;50.69141;936.863;;;;
2021/04/10 06:04:02;;;;;;;2.1;1.5;;;;;;;10.58;49.96973;936.8283;;;;
2021/04/10 06:06:27;;;;;;;1.8;1.4;;;;;;;10.28;51.38281;936.8472;;;;
2021/04/10 06:08:54;;;;;;;3.8;1.5;;;;;;;11.06;49.5332;936.7714;;;;
2021/04/10 06:11:19;;;;;;;2.8;1.8;;;;;;;11.44;48.39746;936.7952;;;;
2021/04/10 06:13:45;;;;;;;1.9;1.4;;;;;;;11.53;47.56055;936.7396;;;;
2021/04/10 06:16:22;;;;;;;1.3;1.1;;;;;;;11.6;47.92285;936.7622;;;;
2021/04/10 06:18:47;;;;;;;1.6;1.1;;;;;;;11.79;47.03906;936.741;;;;
2021/04/10 06:21:14;;;;;;;2.9;1.8;;;;;;;11.91;45.88379;936.7534;;;;
2021/04/10 06:23:42;;;;;;;4.5;1.9;;;;;;;12.18;45.38477;936.7021;;;;
2021/04/10 06:26:05;;;;;;;3.6;1.5;;;;;;;12.36;45.78223;936.7104;;;;
2021/04/10 06:28:31;;;;;;;4.5;2.2;;;;;;;12.02;45.47168;936.7188;;;;
2021/04/10 06:30:56;;;;;;;4.1;2.7;;;;;;;11.73;44.62891;936.7117;;;;
2021/04/10 06:33:23;;;;;;;2.9;1.8;;;;;;;12.43;45.41113;936.6644;;;;
2021/04/10 06:35:47;;;;;;;1.4;1.1;;;;;;;13.03;44.3252;936.7028;;;;
2021/04/10 06:38:15;;;;;;;2.9;1.4;;;;;;;12.72;44.88086;936.7164;;;;
2021/04/10 06:40:40;;;;;;;1.2;0.9;;;;;;;12;45.50391;936.6848;;;;
2021/04/10 06:43:06;;;;;;;1.7;1.4;;;;;;;11.69;46.71973;936.6662;;;;
2021/04/10 06:45:31;;;;;;;1.7;1.3;;;;;;;11.42;46.2666;936.5901;;;;
2021/04/10 06:47:57;;;;;;;3.4;1.3;;;;;;;11.51;47.06641;936.6199;;;;
2021/04/10 06:50:22;;;;;;;1.4;1;;;;;;;12.01;46.36523;936.6078;;;;
2021/04/10 06:52:52;;;;;;;1.1;0.9;;;;;;;12.16;45.18848;936.548;;;;
2021/04/10 06:55:17;;;;;;;1.8;1;;;;;;;12.63;44.9043;936.5719;;;;
2021/04/10 06:57:44;;;;;;;2.4;1.1;;;;;;;13.71;41.53125;936.6069;;;;
2021/04/10 07:00:09;;;;;;;1.7;1.1;;;;;;;13.98;40.23438;936.5383;;;;
2021/04/10 07:02:37;;;;;;;2.1;1.2;;;;;;;14.27;40.19141;936.5449;;;;
2021/04/10 07:05:00;;;;;;;1.2;1;;;;;;;14.82;39.22754;936.5044;;;;
2021/04/10 07:07:26;;;;;;;6.3;1.1;;;;;;;14.71;37.16602;936.5084;;;;
2021/04/10 07:09:51;;;;;;;4.8;1.4;;;;;;;14.8;37.20703;936.4739;;;;
2021/04/10 07:12:18;;;;;;;2.8;1;;;;;;;14.64;37.81641;936.4722;;;;
2021/04/10 07:14:43;;;;;;;3.3;1.3;;;;;;;14.49;37.72266;936.4708;;;;
2021/04/10 07:17:10;;;;;;;2.5;1.1;;;;;;;15.29;36.86816;936.4222;;;;
2021/04/10 07:19:36;;;;;;;2.1;1.4;;;;;;;15.91;35.89258;936.4162;;;;
2021/04/10 07:22:02;;;;;;;3.6;1.7;;;;;;;17.54;33.03223;936.3829;;;;
2021/04/10 07:24:28;;;;;;;0.6;0.5;;;;;;;17.3;32.55078;936.3912;;;;
2021/04/10 07:26:54;;;;;;;0.5;0.5;;;;;;;16.85;32.89941;936.4152;;;;
2021/04/10 07:29:20;;;;;;;1.6;0.8;;;;;;;16.32;34.24805;936.36;;;;
2021/04/10 07:31:45;;;;;;;2.5;0.9;;;;;;;17.44;32.43359;936.3912;;;;
2021/04/10 07:34:11;;;;;;;4;0.9;;;;;;;19.11;29.7041;936.3102;;;;
2021/04/10 07:36:36;;;;;;;0.8;0.6;;;;;;;17.68;29.51367;936.3419;;;;
2021/04/10 07:39:03;;;;;;;8;1.2;;;;;;;16.57;32.6582;936.2992;;;;
2021/04/10 07:41:28;;;;;;;0.5;0.5;;;;;;;16.23;33.16406;936.3375;;;;
2021/04/10 07:43:55;;;;;;;1;0.8;;;;;;;16.62;32.43066;936.3173;;;;
2021/04/10 07:46:21;;;;;;;1.7;0.6;;;;;;;16.84;32.15723;936.3221;;;;
2021/04/10 07:48:47;;;;;;;0.9;0.6;;;;;;;17.91;29.77344;936.3212;;;;
2021/04/10 07:51:12;;;;;;;0.5;0.4;;;;;;;18.12;29.43945;936.2911;;;;
2021/04/10 07:53:39;;;;;;;0.9;0.6;;;;;;;18.16;29.20898;936.295;;;;
2021/04/10 07:56:04;;;;;;;1;0.5;;;;;;;17.99;29.97656;936.3176;;;;
2021/04/10 07:58:30;;;;;;;0.7;0.4;;;;;;;18.77;27.5166;936.3177;;;;
2021/04/10 08:00:57;;;;;;;2.8;0.8;;;;;;;19.17;26.20215;936.2773;;;;
2021/04/10 08:03:24;;;;;;;0.4;0.3;;;;;;;20.01;26.00684;936.3066;;;;
2021/04/10 08:05:49;;;;;;;2.3;1.1;;;;;;;20.77;25.49121;936.3115;;;;
2021/04/10 08:08:14;;;;;;;1.2;0.8;;;;;;;20.61;24.70996;936.2737;;;;
2021/04/10 08:10:40;;;;;;;1.4;0.6;;;;;;;20.23;26.18359;936.2488;;;;
2021/04/10 08:13:05;;;;;;;1.3;0.8;;;;;;;18.99;26.20313;936.2672;;;;
2021/04/10 08:15:50;;;;;;;5.3;0.8;;;;;;;18.78;28.01758;936.2715;;;;
2021/04/10 08:18:18;;;;;;;0.8;0.5;;;;;;;19.86;26.79199;936.2438;;;;
2021/04/10 08:20:45;;;;;;;2.7;0.8;;;;;;;20;25.43457;936.2802;;;;
2021/04/10 08:23:10;;;;;;;1.1;0.6;;;;;;;19.64;26.86035;936.2685;;;;
2021/04/10 08:25:39;;;;;;;0.3;0.3;;;;;;;19.44;25.50684;936.3278;;;;
2021/04/10 08:28:09;;;;;;;0.6;0.6;;;;;;;18.81;26.04102;936.3214;;;;
2021/04/10 08:30:34;;;;;;;0.9;0.3;;;;;;;19.98;25.45703;936.2614;;;;
2021/04/10 08:33:00;;;;;;;2.5;0.8;;;;;;;20.86;23.55469;936.2798;;;;
2021/04/10 08:35:26;;;;;;;1.2;1;;;;;;;20.68;23.61621;936.2206;;;;
2021/04/10 08:37:53;;;;;;;0.3;0.3;;;;;;;21.33;23.5459;936.2849;;;;
2021/04/10 08:40:18;;;;;;;0.5;0.5;;;;;;;20.89;23.3584;936.2592;;;;
2021/04/10 08:42:43;;;;;;;1.9;1;;;;;;;21.51;22.84082;936.3113;;;;
2021/04/10 08:45:13;;;;;;;0.8;0.6;;;;;;;21.91;22.2168;936.238;;;;
2021/04/10 08:47:39;;;;;;;1;0.6;;;;;;;21.76;23.61523;936.307;;;;
2021/04/10 08:50:04;;;;;;;1.7;0.6;;;;;;;22.11;21.71094;936.3525;;;;
2021/04/10 08:52:30;;;;;;;4;0.8;;;;;;;21.03;23.68164;936.3018;;;;
2021/04/10 08:54:55;;;;;;;0.8;0.6;;;;;;;21.74;23.15723;936.2675;;;;
2021/04/10 08:57:24;;;;;;;2.6;0.7;;;;;;;21.32;23.36914;936.2963;;;;
2021/04/10 08:59:50;;;;;;;1.6;0.6;;;;;;;20.52;23.99316;936.2441;;;;
2021/04/10 09:02:15;;;;;;;1;0.7;;;;;;;19.43;25.4834;936.2117;;;;
2021/04/10 09:04:40;;;;;;;1;0.8;;;;;;;19.72;25.74512;936.2573;;;;
2021/04/10 09:07:06;;;;;;;0.7;0.7;;;;;;;19.04;26.04297;936.2177;;;;
2021/04/10 09:09:31;;;;;;;2.3;0.8;;;;;;;19.89;25.05469;936.2162;;;;
2021/04/10 09:11:56;;;;;;;2.3;1;;;;;;;20.59;24.97754;936.2209;;;;
2021/04/10 09:14:22;;;;;;;1;0.9;;;;;;;20.46;24.49219;936.1772;;;;
2021/04/10 09:16:52;;;;;;;1.7;0.6;;;;;;;20.18;24.48828;936.1828;;;;
2021/04/10 09:19:18;;;;;;;2;0.9;;;;;;;20.77;23.76074;936.173;;;;
2021/04/10 09:21:43;;;;;;;1.3;0.9;;;;;;;21.39;25.04688;936.1431;;;;
2021/04/10 09:24:08;;;;;;;0.9;0.6;;;;;;;21.83;23.87695;936.1038;;;;
2021/04/10 09:26:33;;;;;;;1;0.7;;;;;;;21.99;22.52539;936.1066;;;;
2021/04/10 09:28:59;;;;;;;0.7;0.6;;;;;;;21.64;22.92969;936.0391;;;;
2021/04/10 09:31:23;;;;;;;1;0.7;;;;;;;22.23;22.00977;936.0058;;;;
2021/04/10 09:33:49;;;;;;;0.4;0.4;;;;;;;22.12;22.48535;936.0259;;;;
2021/04/10 09:36:16;;;;;;;1.1;0.8;;;;;;;23.04;20.76953;935.9671;;;;
2021/04/10 09:38:43;;;;;;;0.9;0.6;;;;;;;23.96;21.33105;936.0146;;;;
2021/04/10 09:41:08;;;;;;;3.3;0.8;;;;;;;22.88;20.23438;935.9677;;;;
2021/04/10 09:43:33;;;;;;;0.9;0.6;;;;;;;22.03;21.39063;936.014;;;;
2021/04/10 09:46:00;;;;;;;1.9;0.9;;;;;;;22.34;22.01563;935.9796;;;;
2021/04/10 09:48:26;;;;;;;0.5;0.4;;;;;;;21.69;22.27539;936.0041;;;;
2021/04/10 09:50:51;;;;;;;1.6;0.7;;;;;;;22.04;23.71191;935.921;;;;
2021/04/10 09:53:16;;;;;;;0.4;0.4;;;;;;;23.31;22.22852;935.8719;;;;
2021/04/10 09:55:43;;;;;;;1.8;0.8;;;;;;;23.35;21.6543;935.7574;;;;
2021/04/10 09:58:08;;;;;;;0.9;0.6;;;;;;;23.59;19.99512;935.7426;;;;
2021/04/10 10:00:33;;;;;;;1.6;0.8;;;;;;;21.85;21.81543;935.7511;;;;
2021/04/10 10:02:58;;;;;;;1.6;0.7;;;;;;;22.63;23.82617;935.7519;;;;
2021/04/10 10:05:23;;;;;;;1.2;0.7;;;;;;;23.69;22.71777;935.7162;;;;
2021/04/10 10:07:53;;;;;;;1.8;0.7;;;;;;;24.1;22.63281;935.6613;;;;
2021/04/10 10:10:18;;;;;;;2.6;0.7;;;;;;;24.06;20.95898;935.5209;;;;
2021/04/10 10:12:43;;;;;;;2.6;0.6;;;;;;;24.09;20.95996;935.5128;;;;
2021/04/10 10:15:09;;;;;;;0.8;0.6;;;;;;;23.46;22.07129;935.4697;;;;
2021/04/10 10:17:35;;;;;;;2.3;0.8;;;;;;;23.33;22.26465;935.4341;;;;
2021/04/10 10:20:07;;;;;;;0.6;0.5;;;;;;;23.19;22.77441;935.4187;;;;
2021/04/10 10:22:32;;;;;;;3.1;0.8;;;;;;;23.28;22.81445;935.4037;;;;
2021/04/10 10:24:57;;;;;;;0.8;0.6;;;;;;;24.01;22.19238;935.3359;;;;
2021/04/10 10:27:22;;;;;;;0.9;0.4;;;;;;;22.78;20.3584;935.3527;;;;
2021/04/10 10:29:50;;;;;;;1.6;0.9;;;;;;;23.14;21.34961;935.3111;;;;
2021/04/10 10:32:15;;;;;;;2.8;0.5;;;;;;;23.69;21.10547;935.3032;;;;
2021/04/10 10:34:40;;;;;;;0.9;0.6;;;;;;;23.17;23.18457;935.2756;;;;
2021/04/10 10:37:05;;;;;;;3.3;0.8;;;;;;;23.42;21.01074;935.2681;;;;
2021/04/10 10:39:30;;;;;;;0.5;0.4;;;;;;;24.16;20.85742;935.25;;;;
2021/04/10 10:41:55;;;;;;;2;0.6;;;;;;;24.71;20.75293;935.2266;;;;
2021/04/10 10:44:21;;;;;;;2;0.5;;;;;;;24.25;19.8252;935.1912;;;;
2021/04/10 10:46:46;;;;;;;1.6;0.6;;;;;;;24.47;19.64551;935.1195;;;;
2021/04/10 10:49:12;;;;;;;0.5;0.5;;;;;;;25.72;19.86621;935.1214;;;;
2021/04/10 10:51:37;;;;;;;1.1;0.6;;;;;;;25.84;18.5127;935.0076;;;;
2021/04/10 10:54:03;;;;;;;0.5;0.4;;;;;;;26.63;18.43848;935.0002;;;;
2021/04/10 10:56:28;;;;;;;0.7;0.5;;;;;;;25.77;19.49023;934.9786;;;;
2021/04/10 10:58:54;;;;;;;0.6;0.4;;;;;;;24.53;19.73145;934.9765;;;;
2021/04/10 11:01:19;;;;;;;0.6;0.4;;;;;;;25.41;19.07324;934.8965;;;;
2021/04/10 11:03:44;;;;;;;4.4;0.5;;;;;;;26.01;19.5957;934.8554;;;;
2021/04/10 11:06:11;;;;;;;1.3;0.5;;;;;;;24.77;18.91602;934.8289;;;;
2021/04/10 11:08:36;;;;;;;1.1;0.8;;;;;;;24.69;19.73828;934.8198;;;;
2021/04/10 11:11:01;;;;;;;0.6;0.5;;;;;;;24.46;20.23438;934.6707;;;;
2021/04/10 11:13:26;;;;;;;1.1;0.7;;;;;;;24.69;20.5166;934.7341;;;;
2021/04/10 11:15:54;;;;;;;0.5;0.4;;;;;;;22.81;22.19141;934.6248;;;;
2021/04/10 11:18:23;;;;;;;0.5;0.4;;;;;;;23.42;21.91602;934.6066;;;;
2021/04/10 11:20:50;;;;;;;0.9;0.6;;;;;;;23.63;21.49121;934.6289;;;;
2021/04/10 11:23:15;;;;;;;0.9;0.5;;;;;;;24.25;21.20313;934.6356;;;;
2021/04/10 11:25:40;;;;;;;0.8;0.4;;;;;;;24.23;22.02637;934.5804;;;;
2021/04/10 11:28:06;;;;;;;1.3;0.5;;;;;;;24.66;21.22266;934.6298;;;;
2021/04/10 11:30:31;;;;;;;0.9;0.7;;;;;;;25.21;19.93848;934.5438;;;;
2021/04/10 11:32:59;;;;;;;1.2;0.6;;;;;;;25.88;20.08594;934.5331;;;;
2021/04/10 11:35:24;;;;;;;0.5;0.3;;;;;;;25.89;18.8457;934.5094;;;;
2021/04/10 11:37:53;;;;;;;0.6;0.5;;;;;;;25.81;21.18262;934.468;;;;
2021/04/10 11:40:17;;;;;;;3;0.8;;;;;;;26.28;20.40039;934.367;;;;
2021/04/10 11:42:46;;;;;;;2.6;0.4;;;;;;;25.6;19.81348;934.3738;;;;
2021/04/10 11:45:11;;;;;;;0.5;0.3;;;;;;;25.96;19.87695;934.3582;;;;
2021/04/10 11:47:36;;;;;;;0.4;0.4;;;;;;;26.44;18.69141;934.3461;;;;
2021/04/10 11:50:01;;;;;;;3.8;0.7;;;;;;;25.65;18.6582;934.3298;;;;
2021/04/10 11:52:26;;;;;;;0.8;0.7;;;;;;;25.17;18.63867;934.3328;;;;
2021/04/10 11:54:54;;;;;;;0.5;0.5;;;;;;;24.12;19.24219;934.397;;;;
2021/04/10 11:57:19;;;;;;;0.5;0.4;;;;;;;24.09;20.60645;934.3025;;;;
2021/04/10 11:59:44;;;;;;;1.1;0.4;;;;;;;24.84;20.24023;934.3938;;;;
2021/04/10 12:02:09;;;;;;;11;0.7;;;;;;;25.19;19.46484;934.3906;;;;
2021/04/10 12:04:37;;;;;;;3.7;0.6;;;;;;;25.41;19.29785;934.3258;;;;
2021/04/10 12:07:01;;;;;;;0.9;0.4;;;;;;;26.78;18.38574;934.3324;;;;
2021/04/10 12:09:26;;;;;;;0.3;0.3;;;;;;;27.33;18.76367;934.2885;;;;
2021/04/10 12:11:54;;;;;;;0.6;0.4;;;;;;;27.45;16.78711;934.2419;;;;
2021/04/10 12:14:19;;;;;;;0.6;0.4;;;;;;;26.13;17.64941;934.1495;;;;
2021/04/10 12:16:44;;;;;;;0.3;0.3;;;;;;;26.34;18.21289;934.0682;;;;
2021/04/10 12:19:09;;;;;;;0.5;0.3;;;;;;;25.25;18.80664;934.1201;;;;
2021/04/10 12:21:35;;;;;;;0.7;0.4;;;;;;;25.57;18.37109;934.0641;;;;
2021/04/10 12:24:00;;;;;;;0.9;0.5;;;;;;;25.85;20.08496;934.0744;;;;
2021/04/10 12:26:27;;;;;;;1.4;0.5;;;;;;;25.23;18.32227;934.0853;;;;
2021/04/10 12:28:52;;;;;;;0.2;0.2;;;;;;;25.03;19.42285;934.0764;;;;
2021/04/10 12:31:19;;;;;;;1.1;0.4;;;;;;;24.15;21.04492;933.9789;;;;
2021/04/10 12:33:44;;;;;;;0.3;0.3;;;;;;;23.38;20.91504;933.9501;;;;
2021/04/10 12:36:10;;;;;;;0.6;0.5;;;;;;;24.38;20.76172;933.9442;;;;
2021/04/10 12:38:35;;;;;;;0.8;0.6;;;;;;;23.42;20.39941;933.8819;;;;
2021/04/10 12:41:01;;;;;;;0.5;0.3;;;;;;;23.87;21.19727;933.8816;;;;
2021/04/10 12:43:26;;;;;;;0.5;0.3;;;;;;;24.33;20.47656;933.8904;;;;
2021/04/10 12:45:53;;;;;;;0.5;0.4;;;;;;;24.71;19.72754;933.9017;;;;
2021/04/10 12:48:18;;;;;;;0.5;0.5;;;;;;;24.46;20.2002;933.8287;;;;
2021/04/10 12:50:45;;;;;;;0.7;0.7;;;;;;;23.56;20.54688;933.8608;;;;
2021/04/10 12:53:10;;;;;;;1.4;0.3;;;;;;;23.92;21.71777;933.7896;;;;
2021/04/10 12:55:35;;;;;;;0.4;0.4;;;;;;;24.59;20.91309;933.7856;;;;
2021/04/10 12:58:01;;;;;;;0.5;0.5;;;;;;;24.41;19.84375;933.7203;;;;
2021/04/10 13:00:28;;;;;;;1.6;0.5;;;;;;;23.11;22.66406;933.7037;;;;
2021/04/10 13:02:53;;;;;;;1.2;0.6;;;;;;;22.93;21.88086;933.67;;;;
2021/04/10 13:05:19;;;;;;;0.3;0.3;;;;;;;22.7;21.39941;933.6544;;;;
2021/04/10 13:07:45;;;;;;;0.8;0.5;;;;;;;22.61;22.79199;933.5822;;;;
2021/04/10 13:10:12;;;;;;;0.5;0.5;;;;;;;21.75;23.33301;933.5859;;;;
2021/04/10 13:12:37;;;;;;;0.5;0.3;;;;;;;21.22;24.5918;933.6261;;;;
2021/04/10 13:15:05;;;;;;;1.4;0.5;;;;;;;21.16;26.75293;933.6169;;;;
2021/04/10 13:17:30;;;;;;;1.4;0.8;;;;;;;21.55;24.63379;933.6131;;;;
2021/04/10 13:19:56;;;;;;;0.4;0.2;;;;;;;21.91;23.44727;933.6103;;;;
2021/04/10 13:22:21;;;;;;;0.7;0.4;;;;;;;21.56;23.95605;933.5664;;;;
2021/04/10 13:24:46;;;;;;;0.8;0.8;;;;;;;20.72;24.38965;933.5804;;;;
2021/04/10 13:27:14;;;;;;;0.8;0.6;;;;;;;20.61;23.70605;933.4975;;;;
2021/04/10 13:29:39;;;;;;;4.6;0.8;;;;;;;20.64;25.57715;933.5106;;;;
2021/04/10 13:32:05;;;;;;;0.8;0.7;;;;;;;20.27;24.93652;933.5233;;;;
2021/04/10 13:34:32;;;;;;;2.8;0.6;;;;;;;20.2;24.83984;933.5067;;;;
2021/04/10 13:36:57;;;;;;;1.5;0.7;;;;;;;20.09;25.33496;933.4995;;;;
2021/04/10 13:39:23;;;;;;;0.6;0.4;;;;;;;20.25;24.75977;933.503;;;;
2021/04/10 13:41:49;;;;;;;0.8;0.5;;;;;;;20.27;25.58984;933.5159;;;;
2021/04/10 13:44:14;;;;;;;0.5;0.4;;;;;;;20.35;26.98535;933.4724;;;;
2021/04/10 13:46:39;;;;;;;1.6;1.1;;;;;;;20.16;25.78223;933.512;;;;
2021/04/10 13:49:05;;;;;;;0.6;0.6;;;;;;;20.03;24.92285;933.5109;;;;
2021/04/10 13:51:30;;;;;;;1;0.5;;;;;;;19.87;25.21777;933.4153;;;;
2021/04/10 13:53:56;;;;;;;1.3;0.6;;;;;;;19.88;27.7959;933.5176;;;;
2021/04/10 13:56:21;;;;;;;0.3;0.3;;;;;;;19.33;27.7959;933.5305;;;;
2021/04/10 13:58:50;;;;;;;1.1;0.9;;;;;;;19.18;28.53125;933.5181;;;;
2021/04/10 14:01:15;;;;;;;0.6;0.6;;;;;;;19.22;26.88086;933.5831;;;;
2021/04/10 14:03:40;;;;;;;0.4;0.4;;;;;;;19.4;28.86133;933.5396;;;;
2021/04/10 14:06:05;;;;;;;2.9;0.6;;;;;;;19.45;30.42578;933.505;;;;
2021/04/10 14:08:30;;;;;;;0.4;0.3;;;;;;;19.8;28.70117;933.4989;;;;
2021/04/10 14:10:55;;;;;;;4.2;0.8;;;;;;;19.92;29.41992;933.5469;;;;
2021/04/10 14:13:23;;;;;;;0.6;0.5;;;;;;;20;29.16797;933.5231;;;;
2021/04/10 14:15:51;;;;;;;0.5;0.4;;;;;;;19.73;30.4209;933.4755;;;;
2021/04/10 14:18:16;;;;;;;0.9;0.4;;;;;;;19.77;31.91699;933.4757;;;;
2021/04/10 14:20:42;;;;;;;1.9;0.6;;;;;;;19.77;31.13574;933.533;;;;
2021/04/10 14:23:08;;;;;;;1.6;1.1;;;;;;;19.41;33.11523;933.4946;;;;
2021/04/10 14:25:33;;;;;;;0.4;0.3;;;;;;;19.42;32.42773;933.5083;;;;